Time;durP1;ratioP1;P1;durP2;ratioP2;P2;SDS_P1;SDS_P2;PMS_P1;PMS_P2;Temp;Humidity;BMP_temperature;BMP_pressure;BME280_temperature;BME280_humidity;BME280_pressure;Samples;Min_cycle;Max_cycle;Signal;HPM_P1;HPM_P2
2022/02/05 00:02:13;;;;;;;;;;;;;;;4.08;0.00;98861.44;5033072;28;19975;-64
2022/02/05 00:04:27;;;;;;;;;;;;;;;4.19;0.00;98859.59;5035116;28;20464;-64
2022/02/05 00:06:54;;;;;;;;;;;;;;;4.09;0.00;98860.56;5034617;28;19956;-64
2022/02/05 00:15:06;;;;;;;;;;;;;;;4.17;0.00;98868.13;5036089;28;20002;-64
2022/02/05 00:45:06;;;;;;;;;;;;;;;4.32;0.00;98897.75;4964518;28;19961;-64
2022/02/05 00:47:32;;;;;;;;;;;;;;;4.49;0.00;98895.88;4964769;28;19932;-64
2022/02/05 00:50:00;;;;;;;;;;;;;;;4.30;0.00;98902.03;4971673;28;19925;-64
2022/02/05 00:52:27;;;;;;;;;;;;;;;4.43;0.00;98895.13;4963890;28;20423;-64
2022/02/05 00:55:01;;;;;;;;;;;;;;;4.31;0.00;98903.69;4963946;28;19918;-64
2022/02/05 01:00:21;;;;;;;;;;;;;;;4.03;0.00;98908.16;4962032;28;19928;-64
2022/02/05 01:08:52;;;;;;;;;;;;;;;4.24;2.80;98918.19;4961893;28;20506;-64
2022/02/05 01:11:17;;;;;;;;;;;;;;;4.39;2.34;98918.06;4964071;28;19973;-64
2022/02/05 01:13:43;;;;;;;;;;;;;;;4.20;5.48;98931.84;4958322;28;19957;-64
2022/02/05 01:16:17;;;;;;;;;;;;;;;4.36;3.33;98937.66;4964614;28;19918;-64
2022/02/05 01:18:44;;;;;;;;;;;;;;;4.24;4.19;98948.78;4990232;28;20297;-64
2022/02/05 01:21:28;;;;;;;;;;;;;;;4.41;4.99;98941.03;5030872;28;20043;-64
2022/02/05 01:24:00;;;;;;;;;;;;;;;4.45;7.13;98947.78;5032264;28;19925;-64
2022/02/05 01:26:41;;;;;;;;;;;;;;;4.08;9.96;98955.72;5030653;28;19932;-64
2022/02/05 01:29:22;;;;;;;;;;;;;;;3.94;10.04;98958.31;5031342;28;19936;-64
2022/02/05 01:31:52;;;;;;;;;;;;;;;4.19;7.42;98961.56;5014588;28;19921;-64
2022/02/05 01:34:27;;;;;;;;;;;;;;;4.32;7.10;98961.50;5028588;28;19925;-64
2022/02/05 01:52:21;;;;;;;;;;;;;;;4.00;11.06;98990.59;5033494;28;19924;-64
2022/02/05 02:11:57;;;;;;;;;;;;;;;4.59;6.91;99012.28;5037697;28;19923;-64
2022/02/05 02:31:12;;;;;;;;;;;;;;;4.17;15.03;99016.81;5034851;28;20357;-63
2022/02/05 02:33:43;;;;;;;;;;;;;;;3.89;15.91;99030.56;5024461;28;19931;-63
2022/02/05 02:36:52;;;;;;;;;;;;;;;4.06;13.60;99036.44;5037922;28;20016;-63
2022/02/05 03:00:42;;;;;;;;;;;;;;;4.05;23.01;99028.78;5037490;28;19917;-63
2022/02/05 03:03:08;;;;;;;;;;;;;;;4.24;22.98;99032.91;5033994;28;20363;-63
2022/02/05 03:05:33;;;;;;;;;;;;;;;4.19;27.10;99039.72;5036114;28;19920;-63
2022/02/05 03:08:01;;;;;;;;;;;;;;;4.04;26.06;99047.44;5037278;28;19920;-63
2022/02/05 03:17:04;;;;;;;;;;;;;;;4.03;21.19;99045.78;5020376;28;20398;-63
2022/02/05 03:19:29;;;;;;;;;;;;;;;4.10;19.67;99052.53;5023026;28;20016;-63
2022/02/05 03:22:04;;;;;;;;;;;;;;;3.91;24.00;99061.97;5016788;28;20016;-63
2022/02/05 03:37:25;;;;;;;;;;;;;;;4.34;21.58;99077.06;5013396;28;19929;-63
2022/02/05 03:39:50;;;;;;;;;;;;;;;4.10;17.00;99086.50;5016738;28;19944;-63
2022/02/05 03:42:15;;;;;;;;;;;;;;;3.63;19.00;99102.81;5015805;28;20588;-63
2022/02/05 03:44:58;;;;;;;;;;;;;;;3.74;13.70;99093.44;5013751;28;19921;-62
2022/02/05 03:47:25;;;;;;;;;;;;;;;3.60;12.58;99102.81;5016006;28;20290;-63
2022/02/05 03:49:59;;;;;;;;;;;;;;;4.00;9.68;99097.59;5017483;28;19999;-63
2022/02/05 03:58:36;;;;;;;;;;;;;;;3.74;11.94;99108.72;5014316;28;19941;-63
2022/02/05 04:04:22;;;;;;;;;;;;;;;4.10;7.57;99111.16;5013551;28;20011;-63
2022/02/05 04:06:48;;;;;;;;;;;;;;;3.86;9.36;99127.38;5014313;28;19921;-62
2022/02/05 04:09:21;;;;;;;;;;;;;;;4.05;7.14;99120.50;5013807;28;19951;-63
2022/02/05 04:27:48;;;;;;;;;;;;;;;4.15;11.05;99128.13;5030820;28;19928;-63
2022/02/05 04:36:21;;;;;;;;;;;;;;;3.78;14.06;99138.41;5034238;28;20047;-63
2022/02/05 04:38:49;;;;;;;;;;;;;;;3.90;9.67;99135.00;5014646;28;20011;-63
2022/02/05 05:29:47;;;;;;;;;;;;;;;3.92;3.94;99175.75;4941207;28;19980;-62
2022/02/05 05:42:15;;;;;;;;;;;;;;;3.88;5.74;99186.81;5028421;28;19964;-63
2022/02/05 06:03:44;;;;;;;;;;;;;;;3.99;8.31;99192.72;5036024;28;19937;-62
2022/02/05 06:06:19;;;;;;;;;;;;;;;3.71;8.00;99197.88;5034007;28;19987;-62
2022/02/05 06:08:44;;;;;;;;;;;;;;;3.81;7.43;99208.91;5038789;28;19924;-62
2022/02/05 06:11:09;;;;;;;;;;;;;;;3.65;6.99;99208.06;5036912;28;19921;-63
2022/02/05 06:13:36;;;;;;;;;;;;;;;3.74;4.62;99213.16;5041603;28;20453;-62
2022/02/05 06:16:32;;;;;;;;;;;;;;;3.88;4.65;99225.03;5035113;28;19920;-62
2022/02/05 06:19:05;;;;;;;;;;;;;;;3.63;5.88;99217.41;5039725;28;20401;-62
2022/02/05 06:21:53;;;;;;;;;;;;;;;4.09;4.74;99219.88;5036294;28;19925;-61
2022/02/05 06:24:18;;;;;;;;;;;;;;;3.62;9.89;99223.34;5038590;28;20445;-62
2022/02/05 06:29:46;;;;;;;;;;;;;;;3.64;8.28;99219.09;5031780;28;19928;-61
2022/02/05 06:32:15;;;;;;;;;;;;;;;3.70;6.91;99231.00;5037738;28;19918;-63
2022/02/05 06:34:58;;;;;;;;;;;;;;;3.58;9.44;99226.75;5032573;28;19917;-61
2022/02/05 06:37:24;;;;;;;;;;;;;;;3.57;8.84;99235.22;5032866;28;19924;-61
2022/02/05 06:39:52;;;;;;;;;;;;;;;3.80;9.75;99231.84;5038430;28;19924;-62
2022/02/05 06:42:17;;;;;;;;;;;;;;;3.63;11.80;99237.78;5033947;28;19959;-61
2022/02/05 06:47:46;;;;;;;;;;;;;;;3.68;11.27;99246.28;5034847;28;20000;-63
2022/02/05 06:50:12;;;;;;;;;;;;;;;3.55;12.54;99236.94;5039831;28;20039;-62
2022/02/05 06:52:37;;;;;;;;;;;;;;;3.51;10.45;99241.19;5040742;28;19917;-62
2022/02/05 06:55:32;;;;;;;;;;;;;;;3.66;8.89;99253.06;5033497;28;20271;-62
2022/02/05 07:04:06;;;;;;;;;;;;;;;3.64;13.12;99261.56;5026056;28;19926;-63
2022/02/05 07:06:32;;;;;;;;;;;;;;;4.10;9.65;99269.16;5028720;28;20454;-61
2022/02/05 07:09:29;;;;;;;;;;;;;;;3.78;14.60;99275.97;5023799;28;19925;-62
2022/02/05 07:12:06;;;;;;;;;;;;;;;3.55;11.41;99292.94;5035728;28;19917;-62
2022/02/05 07:14:38;;;;;;;;;;;;;;;4.06;8.32;99281.06;5029995;28;19925;-62
2022/02/05 07:44:15;;;;;;;;;;;;;;;4.13;25.84;99312.50;5032578;28;21151;-63
2022/02/05 08:08:22;;;;;;;;;;;;;;;4.42;35.72;99337.94;5034010;28;19921;-62
2022/02/05 08:11:04;;;;;;;;;;;;;;;4.65;34.69;99332.78;5036542;28;19921;-62
2022/02/05 08:25:46;;;;;;;;;;;;;;;4.92;38.01;99346.31;5017626;28;19928;-63
2022/02/05 08:28:13;;;;;;;;;;;;;;;4.27;44.58;99351.56;5040702;28;20517;-62
2022/02/05 08:30:38;;;;;;;;;;;;;;;4.01;41.25;99359.19;5030344;28;19936;-62
2022/02/05 08:33:04;;;;;;;;;;;;;;;4.61;35.13;99365.13;5035370;28;19920;-62
2022/02/05 08:35:29;;;;;;;;;;;;;;;4.39;38.59;99366.84;5038456;28;20371;-62
2022/02/05 08:40:57;;;;;;;;;;;;;;;4.65;37.22;99372.75;5032365;28;19943;-62
2022/02/05 08:43:36;;;;;;;;;;;;;;;4.12;39.84;99372.78;5030150;28;19921;-60
2022/02/05 08:46:01;;;;;;;;;;;;;;;4.75;31.39;99369.34;5035208;28;19952;-62
2022/02/05 08:48:29;;;;;;;;;;;;;;;4.86;34.44;99382.91;5035213;28;20426;-62
2022/02/05 08:51:17;;;;;;;;;;;;;;;4.63;35.26;99385.53;5023105;28;19929;-62
2022/02/05 08:54:01;;;;;;;;;;;;;;;4.86;38.11;99384.59;5022489;28;19925;-62
2022/02/05 08:56:26;;;;;;;;;;;;;;;5.03;39.54;99387.97;5033948;28;20012;-62
2022/02/05 09:01:58;;;;;;;;;;;;;;;4.80;39.67;99388.03;5012583;28;20295;-62
2022/02/05 09:32:07;;;;;;;;;;;;;;;4.92;54.28;99369.28;5024395;28;20011;-62
2022/02/05 09:56:20;;;;;;;;;;;;;;;4.80;54.99;99406.72;5018789;28;19928;-60
2022/02/05 09:59:08;;;;;;;;;;;;;;;5.10;50.15;99401.56;5022425;28;19917;-62
2022/02/05 10:01:58;;;;;;;;;;;;;;;5.06;53.87;99397.31;5026145;28;19967;-59
2022/02/05 10:04:23;;;;;;;;;;;;;;;5.22;57.07;99398.94;5025249;28;19943;-62
2022/02/05 10:10:05;;;;;;;;;;;;;;;5.65;55.29;99401.28;5030549;28;20056;-62
2022/02/05 10:22:19;;;;;;;;;;;;;;;5.72;69.92;99386.78;5019611;28;20424;-68
2022/02/05 10:46:55;;;;;;;;;;;;;;;5.11;65.59;99428.75;5025957;28;20544;-61
2022/02/05 10:49:40;;;;;;;;;;;;;;;4.93;70.44;99429.69;5012058;28;19918;-60
2022/02/05 10:52:05;;;;;;;;;;;;;;;4.87;68.53;99434.78;5024480;28;19955;-59
2022/02/05 11:19:09;;;;;;;;;;;;;;;5.83;78.07;99413.97;5036271;28;20432;-76
2022/02/05 11:21:35;;;;;;;;;;;;;;;5.31;81.57;99411.66;5031700;28;19917;-76
2022/02/05 11:24:04;;;;;;;;;;;;;;;5.40;79.75;99405.69;5044146;28;19936;-76
2022/02/05 11:26:29;;;;;;;;;;;;;;;5.47;79.47;99398.84;5033691;28;19919;-76
2022/02/05 11:28:55;;;;;;;;;;;;;;;5.63;79.33;99397.91;5034865;28;19917;-76
2022/02/05 11:31:36;;;;;;;;;;;;;;;5.56;80.39;99401.34;5032711;28;20008;-76
2022/02/05 11:34:13;;;;;;;;;;;;;;;5.77;79.91;99397.81;5052612;28;19913;-76
2022/02/05 11:36:39;;;;;;;;;;;;;;;5.81;82.96;99395.22;5052929;28;19920;-76
2022/02/05 11:39:05;;;;;;;;;;;;;;;5.42;86.61;99393.75;5034705;28;19927;-76
2022/02/05 11:41:32;;;;;;;;;;;;;;;5.79;84.45;99391.00;5034434;28;19916;-77
2022/02/05 11:44:13;;;;;;;;;;;;;;;6.59;84.23;99387.81;5034513;28;19971;-77
2022/02/05 11:46:38;;;;;;;;;;;;;;;5.89;97.74;99381.56;5034621;28;19913;-76
2022/02/05 11:49:05;;;;;;;;;;;;;;;5.72;98.73;99386.78;5033666;28;19963;-76
2022/02/05 11:51:31;;;;;;;;;;;;;;;5.97;97.22;99382.38;5033884;28;19913;-76
2022/02/05 11:54:00;;;;;;;;;;;;;;;5.74;99.77;99391.03;5034227;28;20347;-76
2022/02/05 11:56:49;;;;;;;;;;;;;;;5.93;97.99;99375.56;5050140;28;19999;-76
2022/02/05 11:59:17;;;;;;;;;;;;;;;7.23;98.01;99369.22;5051743;28;19924;-76
2022/02/05 12:01:42;;;;;;;;;;;;;;;6.63;100.00;99374.16;5033875;28;19913;-77
2022/02/05 12:04:20;;;;;;;;;;;;;;;6.48;100.00;99373.44;5013949;28;20298;-77
2022/02/05 12:06:45;;;;;;;;;;;;;;;6.46;100.00;99374.31;5017416;28;19917;-76
2022/02/05 12:09:29;;;;;;;;;;;;;;;6.04;100.00;99369.56;5020004;28;20390;-77
2022/02/05 12:11:55;;;;;;;;;;;;;;;5.96;100.00;99373.03;5047246;28;20255;-76
2022/02/05 12:14:21;;;;;;;;;;;;;;;6.25;100.00;99348.06;5033464;28;19990;-76
2022/02/05 12:17:14;;;;;;;;;;;;;;;5.93;100.00;99365.34;5071214;28;19920;-76
2022/02/05 12:20:00;;;;;;;;;;;;;;;6.02;100.00;99357.63;5071135;28;19919;-77
2022/02/05 12:22:45;;;;;;;;;;;;;;;6.12;100.00;99366.94;5071211;28;19967;-77
2022/02/05 12:25:17;;;;;;;;;;;;;;;5.71;100.00;99365.50;5088020;28;20382;-77
2022/02/05 12:27:42;;;;;;;;;;;;;;;6.07;100.00;99354.19;5067514;28;20340;-76
2022/02/05 12:30:26;;;;;;;;;;;;;;;5.93;100.00;99367.88;5069983;28;19969;-77
2022/02/05 12:32:52;;;;;;;;;;;;;;;7.02;100.00;99357.50;5085452;28;19967;-76
2022/02/05 12:35:17;;;;;;;;;;;;;;;6.79;100.00;99360.31;5073212;28;19916;-76
2022/02/05 12:37:42;;;;;;;;;;;;;;;6.98;100.00;99355.84;5091256;28;19916;-77
2022/02/05 12:40:08;;;;;;;;;;;;;;;7.02;100.00;99349.81;5072016;28;19912;-76
2022/02/05 12:42:37;;;;;;;;;;;;;;;7.04;100.00;99350.66;5046817;28;19924;-77
2022/02/05 12:45:03;;;;;;;;;;;;;;;7.26;100.00;99346.13;5063865;28;19928;-77
2022/02/05 12:47:34;;;;;;;;;;;;;;;7.29;100.00;99345.22;5063475;28;19917;-77
2022/02/05 12:50:08;;;;;;;;;;;;;;;6.99;100.00;99341.34;5046896;28;19912;-77
2022/02/05 12:52:34;;;;;;;;;;;;;;;6.64;100.00;99333.19;5046790;28;19947;-77
2022/02/05 12:55:01;;;;;;;;;;;;;;;7.02;100.00;99323.38;5045585;28;19969;-76
2022/02/05 12:57:27;;;;;;;;;;;;;;;6.88;100.00;99318.41;5062223;28;19927;-77
2022/02/05 12:59:53;;;;;;;;;;;;;;;7.28;100.00;99323.03;5044351;28;19917;-77
2022/02/05 13:02:19;;;;;;;;;;;;;;;6.49;100.00;99329.06;5047122;28;19924;-76
2022/02/05 13:04:51;;;;;;;;;;;;;;;6.13;100.00;99326.88;5024497;28;19921;-77
2022/02/05 13:07:18;;;;;;;;;;;;;;;6.57;100.00;99329.00;5043526;28;19916;-77
2022/02/05 13:09:54;;;;;;;;;;;;;;;7.29;100.00;99319.59;5059432;28;19943;-77
2022/02/05 13:12:23;;;;;;;;;;;;;;;6.90;100.00;99325.19;5045866;28;20162;-77
2022/02/05 13:14:51;;;;;;;;;;;;;;;6.44;100.00;99337.66;5036580;28;20020;-76
2022/02/05 13:17:31;;;;;;;;;;;;;;;6.15;100.00;99337.94;5057458;28;20057;-76
2022/02/05 13:36:09;;;;;;;;;;;;;;;6.26;100.00;99308.84;5059844;28;19932;-76
2022/02/05 13:38:56;;;;;;;;;;;;;;;6.67;100.00;99302.44;5042141;28;19923;-77
2022/02/05 13:41:34;;;;;;;;;;;;;;;6.95;100.00;99299.53;5030580;28;19917;-77
2022/02/05 13:44:00;;;;;;;;;;;;;;;6.67;100.00;99294.75;5028409;28;19932;-77
2022/02/05 13:46:25;;;;;;;;;;;;;;;6.76;100.00;99308.34;5042471;28;19916;-77
2022/02/05 13:48:51;;;;;;;;;;;;;;;6.38;100.00;99312.97;5039180;28;19952;-77
2022/02/05 13:51:16;;;;;;;;;;;;;;;6.60;100.00;99305.94;5041641;28;19959;-77
2022/02/05 13:53:48;;;;;;;;;;;;;;;6.50;100.00;99301.78;5042033;28;19912;-77
2022/02/05 13:56:15;;;;;;;;;;;;;;;6.92;100.00;99304.72;5061600;28;19928;-77
2022/02/05 13:58:40;;;;;;;;;;;;;;;7.11;100.00;99301.03;5042634;28;19993;-76
2022/02/05 14:01:06;;;;;;;;;;;;;;;6.67;100.00;99289.63;5033641;28;19925;-77
2022/02/05 14:03:36;;;;;;;;;;;;;;;6.77;100.00;99289.53;5053560;28;20710;-77
2022/02/05 14:06:01;;;;;;;;;;;;;;;7.07;100.00;99288.28;5056531;28;21394;-76
2022/02/05 14:08:30;;;;;;;;;;;;;;;6.76;100.00;99287.84;5057265;28;19923;-77
2022/02/05 14:11:00;;;;;;;;;;;;;;;6.75;100.00;99275.91;5040404;28;19935;-77
2022/02/05 14:13:25;;;;;;;;;;;;;;;6.21;100.00;99282.47;5061013;28;20802;-77
2022/02/05 14:15:54;;;;;;;;;;;;;;;6.65;100.00;99281.13;5039171;28;19925;-77
2022/02/05 14:18:21;;;;;;;;;;;;;;;7.11;100.00;99274.59;5039777;28;19928;-77
2022/02/05 14:20:54;;;;;;;;;;;;;;;7.23;100.00;99278.69;5043171;28;20348;-76
2022/02/05 14:23:21;;;;;;;;;;;;;;;6.90;100.00;99285.97;5078963;28;20685;-77
2022/02/05 14:25:53;;;;;;;;;;;;;;;6.55;100.00;99271.88;5037059;28;20413;-77
2022/02/05 14:28:34;;;;;;;;;;;;;;;7.06;100.00;99272.09;5048446;28;20297;-77
2022/02/05 14:31:08;;;;;;;;;;;;;;;7.08;100.00;99277.19;5048694;28;19943;-77
2022/02/05 14:42:01;;;;;;;;;;;;;;;6.85;100.00;99267.25;5078221;28;19942;-77
2022/02/05 14:44:26;;;;;;;;;;;;;;;7.31;100.00;99266.63;5081562;28;20390;-77
2022/02/05 14:46:52;;;;;;;;;;;;;;;7.11;100.00;99270.31;5062963;28;19974;-77
2022/02/05 14:49:17;;;;;;;;;;;;;;;7.29;100.00;99253.84;5047110;28;19969;-77
2022/02/05 14:51:43;;;;;;;;;;;;;;;7.07;100.00;99253.31;5046642;28;20011;-77
2022/02/05 14:54:08;;;;;;;;;;;;;;;7.02;100.00;99265.31;5047987;28;19923;-77
2022/02/05 14:56:34;;;;;;;;;;;;;;;6.59;100.00;99270.13;5044808;28;20853;-77
2022/02/05 14:58:59;;;;;;;;;;;;;;;6.73;100.00;99267.41;5041751;28;19916;-77
2022/02/05 15:01:25;;;;;;;;;;;;;;;6.49;100.00;99271.94;5042146;28;20306;-77
2022/02/05 15:03:51;;;;;;;;;;;;;;;6.56;100.00;99272.72;5042913;28;20145;-77
2022/02/05 15:06:21;;;;;;;;;;;;;;;6.96;100.00;99265.41;5043149;28;20676;-77
2022/02/05 15:08:47;;;;;;;;;;;;;;;6.85;100.00;99262.13;5075388;28;20398;-78
2022/02/05 15:11:13;;;;;;;;;;;;;;;6.65;100.00;99265.78;5042029;28;19916;-77
2022/02/05 15:13:39;;;;;;;;;;;;;;;6.74;100.00;99259.72;5042614;28;19985;-77
2022/02/05 15:16:04;;;;;;;;;;;;;;;7.03;100.00;99256.78;5029911;28;19924;-77
2022/02/05 15:18:29;;;;;;;;;;;;;;;6.40;100.00;99249.03;5041265;28;19977;-77
2022/02/05 15:20:55;;;;;;;;;;;;;;;6.82;100.00;99247.66;5058915;28;20038;-76
2022/02/05 15:23:20;;;;;;;;;;;;;;;6.76;100.00;99252.84;5042948;28;19924;-77
2022/02/05 15:25:46;;;;;;;;;;;;;;;6.97;100.00;99241.50;5041490;28;19916;-77
2022/02/05 15:28:11;;;;;;;;;;;;;;;6.99;100.00;99239.75;5059437;28;19923;-77
2022/02/05 15:30:36;;;;;;;;;;;;;;;6.40;100.00;99228.56;5041838;28;19920;-77
2022/02/05 15:33:05;;;;;;;;;;;;;;;6.60;100.00;99243.69;5043300;28;19916;-77
2022/02/05 15:35:30;;;;;;;;;;;;;;;6.79;100.00;99237.44;5029370;28;19960;-77
2022/02/05 15:38:04;;;;;;;;;;;;;;;7.10;100.00;99232.78;5044500;28;19979;-78
2022/02/05 15:45:53;;;;;;;;;;;;;;;6.84;100.00;99224.59;5042848;28;20294;-77
2022/02/05 15:48:19;;;;;;;;;;;;;;;6.73;100.00;99223.88;5039063;28;19924;-77
2022/02/05 15:50:44;;;;;;;;;;;;;;;6.46;100.00;99231.06;5040698;28;19924;-77
2022/02/05 15:53:10;;;;;;;;;;;;;;;6.99;100.00;99226.94;5040926;28;20013;-77
2022/02/05 15:55:38;;;;;;;;;;;;;;;6.41;100.00;99231.09;5052958;28;19925;-77
2022/02/05 15:58:10;;;;;;;;;;;;;;;6.86;100.00;99222.88;5052644;28;20212;-77
2022/02/05 16:00:38;;;;;;;;;;;;;;;6.97;100.00;99226.13;5037171;28;20329;-77
2022/02/05 16:03:03;;;;;;;;;;;;;;;6.85;100.00;99221.19;5024616;28;19928;-78
2022/02/05 16:05:29;;;;;;;;;;;;;;;6.52;100.00;99212.22;5039003;28;19920;-77
2022/02/05 16:07:54;;;;;;;;;;;;;;;6.64;100.00;99207.81;5038434;28;20007;-76
2022/02/05 16:10:20;;;;;;;;;;;;;;;6.91;100.00;99205.72;5056976;28;19962;-77
2022/02/05 16:12:47;;;;;;;;;;;;;;;7.01;100.00;99202.19;5037946;28;20562;-76
2022/02/05 16:15:12;;;;;;;;;;;;;;;6.40;100.00;99205.53;5038965;28;20413;-77
2022/02/05 16:17:37;;;;;;;;;;;;;;;6.02;100.00;99206.78;5041231;28;19956;-76
2022/02/05 16:20:03;;;;;;;;;;;;;;;6.73;100.00;99211.09;5058076;28;20002;-76
2022/02/05 16:22:29;;;;;;;;;;;;;;;6.80;100.00;99200.75;5044473;28;19975;-76
2022/02/05 16:24:54;;;;;;;;;;;;;;;6.62;100.00;99209.53;5048391;28;19931;-76
2022/02/05 16:27:23;;;;;;;;;;;;;;;6.42;100.00;99193.56;5045704;28;19919;-77
2022/02/05 16:29:48;;;;;;;;;;;;;;;6.81;100.00;99204.16;5065252;28;19927;-76
2022/02/05 16:32:14;;;;;;;;;;;;;;;6.96;100.00;99203.97;5032622;28;19916;-76
2022/02/05 16:34:45;;;;;;;;;;;;;;;6.06;100.00;99193.97;5049474;28;19919;-77
2022/02/05 16:37:10;;;;;;;;;;;;;;;6.47;100.00;99195.19;5051066;28;19952;-76
2022/02/05 16:39:42;;;;;;;;;;;;;;;6.47;100.00;99195.19;5050170;28;19975;-76
2022/02/05 16:42:08;;;;;;;;;;;;;;;6.24;100.00;99192.91;5050055;28;20628;-75
2022/02/05 16:44:33;;;;;;;;;;;;;;;6.51;100.00;99190.06;5048348;28;19928;-76
2022/02/05 16:46:59;;;;;;;;;;;;;;;6.35;100.00;99185.13;5045833;28;19916;-77
2022/02/05 16:49:25;;;;;;;;;;;;;;;6.54;100.00;99180.63;5042070;28;20554;-77
2022/02/05 16:51:52;;;;;;;;;;;;;;;6.90;100.00;99183.56;5056270;28;19920;-77
2022/02/05 16:54:17;;;;;;;;;;;;;;;6.47;100.00;99168.78;5024366;28;19935;-77
2022/02/05 16:56:43;;;;;;;;;;;;;;;6.40;100.00;99175.69;5056471;28;19917;-77
2022/02/05 16:59:08;;;;;;;;;;;;;;;6.24;100.00;99172.47;5040056;28;19916;-77
2022/02/05 17:01:33;;;;;;;;;;;;;;;6.41;100.00;99179.06;5057521;28;20011;-77
2022/02/05 17:04:01;;;;;;;;;;;;;;;6.35;100.00;99177.44;5041628;28;19985;-76
2022/02/05 17:06:28;;;;;;;;;;;;;;;6.36;100.00;99170.63;5058618;28;19925;-77
2022/02/05 17:08:55;;;;;;;;;;;;;;;6.81;100.00;99170.88;5041210;28;19916;-77
2022/02/05 17:11:20;;;;;;;;;;;;;;;6.70;100.00;99159.09;5041791;28;19917;-77
2022/02/05 17:13:45;;;;;;;;;;;;;;;6.68;100.00;99158.28;5040252;28;19927;-77
2022/02/05 17:16:11;;;;;;;;;;;;;;;6.36;100.00;99160.38;5041276;28;20299;-76
2022/02/05 17:18:37;;;;;;;;;;;;;;;6.29;100.00;99157.06;5027511;28;19928;-77
2022/02/05 17:21:03;;;;;;;;;;;;;;;6.76;100.00;99157.31;5056570;28;19923;-77
2022/02/05 17:23:31;;;;;;;;;;;;;;;6.65;100.00;99153.19;5040908;28;20007;-77
2022/02/05 17:25:58;;;;;;;;;;;;;;;6.67;100.00;99153.16;5071776;28;19932;-77
2022/02/05 17:28:25;;;;;;;;;;;;;;;6.79;100.00;99149.59;5023972;28;20041;-77
2022/02/05 17:30:51;;;;;;;;;;;;;;;6.26;100.00;99142.59;5046457;28;19965;-77
2022/02/05 17:33:19;;;;;;;;;;;;;;;6.30;100.00;99145.13;5038880;28;19924;-77
2022/02/05 17:35:46;;;;;;;;;;;;;;;6.41;100.00;99148.38;5056822;28;19916;-77
2022/02/05 17:38:17;;;;;;;;;;;;;;;6.79;100.00;99145.31;5056714;28;19920;-76
2022/02/05 17:40:42;;;;;;;;;;;;;;;6.50;100.00;99132.94;5057758;28;19947;-77
2022/02/05 17:43:08;;;;;;;;;;;;;;;6.64;100.00;99138.69;5022499;28;20314;-77
2022/02/05 17:45:33;;;;;;;;;;;;;;;6.63;100.00;99134.44;5039958;28;19927;-76
2022/02/05 17:47:58;;;;;;;;;;;;;;;6.31;100.00;99131.47;5040468;28;19932;-77
2022/02/05 17:50:23;;;;;;;;;;;;;;;6.55;100.00;99136.28;5040825;28;19955;-76
2022/02/05 17:52:49;;;;;;;;;;;;;;;6.44;100.00;99133.00;5038633;28;19916;-77
2022/02/05 17:55:15;;;;;;;;;;;;;;;6.69;100.00;99134.38;5056903;28;19916;-76
2022/02/05 17:57:44;;;;;;;;;;;;;;;6.57;100.00;99129.44;5042265;28;19917;-76
2022/02/05 18:00:09;;;;;;;;;;;;;;;6.37;100.00;99127.13;5040430;28;19912;-76
2022/02/05 18:02:35;;;;;;;;;;;;;;;6.21;100.00;99120.50;5037356;28;20408;-76
2022/02/05 18:05:00;;;;;;;;;;;;;;;6.74;100.00;99115.53;5038743;28;19967;-76
2022/02/05 18:07:48;;;;;;;;;;;;;;;6.95;100.00;99101.56;5039230;28;19920;-76
2022/02/05 18:12:58;;;;;;;;;;;;;;;7.11;100.00;99103.84;5042868;28;20300;-77
2022/02/05 18:15:24;;;;;;;;;;;;;;;6.58;100.00;99090.16;5056053;28;19973;-76
2022/02/05 18:17:49;;;;;;;;;;;;;;;7.08;100.00;99096.22;5027332;28;20385;-77
2022/02/05 18:20:15;;;;;;;;;;;;;;;6.09;100.00;99095.94;5054256;28;19916;-77
2022/02/05 18:22:41;;;;;;;;;;;;;;;6.69;100.00;99092.56;5056384;28;19916;-76
2022/02/05 18:25:06;;;;;;;;;;;;;;;6.56;100.00;99091.06;5040098;28;19920;-77
2022/02/05 18:27:32;;;;;;;;;;;;;;;6.26;100.00;99088.91;5056772;28;19928;-76
2022/02/05 18:29:57;;;;;;;;;;;;;;;6.24;100.00;99105.97;5056891;28;20419;-77
2022/02/05 18:32:24;;;;;;;;;;;;;;;6.69;100.00;99093.41;5051678;28;19920;-76
2022/02/05 18:34:49;;;;;;;;;;;;;;;6.25;100.00;99115.34;5055902;28;19999;-77
2022/02/05 18:37:22;;;;;;;;;;;;;;;6.53;100.00;99102.19;5057056;28;19999;-77
2022/02/05 18:39:48;;;;;;;;;;;;;;;6.44;100.00;99097.19;5040006;28;20468;-76
2022/02/05 18:42:16;;;;;;;;;;;;;;;6.48;100.00;99096.28;5023182;28;19912;-76
2022/02/05 18:44:43;;;;;;;;;;;;;;;6.53;100.00;99076.59;5038484;28;19971;-76
2022/02/05 18:47:08;;;;;;;;;;;;;;;6.66;100.00;99075.56;5020670;28;19913;-76
2022/02/05 18:49:34;;;;;;;;;;;;;;;6.58;100.00;99079.94;5038182;28;20941;-76
2022/02/05 18:52:00;;;;;;;;;;;;;;;6.49;100.00;99069.81;5039637;28;19986;-76
2022/02/05 18:54:28;;;;;;;;;;;;;;;6.74;100.00;99072.03;5041032;28;19932;-76
2022/02/05 18:56:54;;;;;;;;;;;;;;;6.19;100.00;99073.66;5039728;28;19912;-77
2022/02/05 18:59:21;;;;;;;;;;;;;;;6.80;100.00;99059.16;5041638;28;19975;-76
2022/02/05 19:02:14;;;;;;;;;;;;;;;6.35;100.00;99041.06;5027084;28;19919;-76
2022/02/05 19:10:20;;;;;;;;;;;;;;;6.58;100.00;99045.81;5045947;28;19923;-76
2022/02/05 19:18:17;;;;;;;;;;;;;;;6.19;100.00;99025.91;5073732;28;19960;-76
2022/02/05 19:20:45;;;;;;;;;;;;;;;6.59;100.00;99039.81;5043875;28;20027;-76
2022/02/05 19:23:10;;;;;;;;;;;;;;;6.42;100.00;99032.41;5042890;28;19920;-76
2022/02/05 19:25:36;;;;;;;;;;;;;;;6.67;100.00;99028.59;5042027;28;20263;-76
2022/02/05 19:28:01;;;;;;;;;;;;;;;6.79;100.00;99016.50;5037487;28;19997;-76
2022/02/05 19:30:26;;;;;;;;;;;;;;;6.28;100.00;99009.59;5024654;28;20059;-76
2022/02/05 19:32:52;;;;;;;;;;;;;;;6.52;100.00;99013.50;5055744;28;19920;-77
2022/02/05 19:35:17;;;;;;;;;;;;;;;6.68;100.00;99004.72;5036782;28;19917;-76
2022/02/05 19:37:43;;;;;;;;;;;;;;;6.67;100.00;99018.38;5039106;28;19916;-76
2022/02/05 19:40:08;;;;;;;;;;;;;;;6.64;100.00;99007.34;5038384;28;20418;-76
2022/02/05 19:42:34;;;;;;;;;;;;;;;6.76;100.00;98998.63;5038754;28;19920;-76
2022/02/05 19:45:00;;;;;;;;;;;;;;;6.65;100.00;98994.53;5038690;28;20070;-76
2022/02/05 19:47:43;;;;;;;;;;;;;;;6.73;100.00;98993.53;5032827;28;19916;-76
2022/02/05 19:50:09;;;;;;;;;;;;;;;6.51;100.00;98986.22;5056194;28;20030;-76
2022/02/05 19:52:34;;;;;;;;;;;;;;;6.66;100.00;98983.44;5040985;28;19924;-77
2022/02/05 19:55:00;;;;;;;;;;;;;;;6.46;100.00;98988.03;5040518;28;20400;-76
2022/02/05 19:57:25;;;;;;;;;;;;;;;6.72;100.00;98994.44;5056105;28;20008;-77
2022/02/05 19:59:50;;;;;;;;;;;;;;;6.70;100.00;98977.41;5036790;28;20530;-77
2022/02/05 20:02:16;;;;;;;;;;;;;;;6.10;100.00;98974.06;5056545;28;19916;-76
2022/02/05 20:05:06;;;;;;;;;;;;;;;6.60;100.00;98973.28;5040804;28;20405;-77
2022/02/05 20:07:35;;;;;;;;;;;;;;;6.46;100.00;98988.03;5057435;28;19948;-77
2022/02/05 20:10:00;;;;;;;;;;;;;;;6.76;100.00;98990.94;5039486;28;19999;-77
2022/02/05 20:12:26;;;;;;;;;;;;;;;6.81;100.00;98984.03;5022299;28;20011;-76
2022/02/05 20:14:51;;;;;;;;;;;;;;;6.83;100.00;99000.22;5057304;28;19916;-76
2022/02/05 20:17:16;;;;;;;;;;;;;;;6.57;100.00;98982.72;5040886;28;19936;-76
2022/02/05 20:19:42;;;;;;;;;;;;;;;6.83;100.00;98982.28;5057507;28;20573;-76
2022/02/05 20:22:07;;;;;;;;;;;;;;;6.35;100.00;98983.06;5040695;28;20015;-76
2022/02/05 20:24:33;;;;;;;;;;;;;;;6.46;100.00;98982.91;5041572;28;19951;-76
2022/02/05 20:26:59;;;;;;;;;;;;;;;6.72;100.00;98969.69;5080300;28;19912;-76
2022/02/05 20:29:24;;;;;;;;;;;;;;;6.46;100.00;98968.41;5050941;28;19924;-76
2022/02/05 20:31:52;;;;;;;;;;;;;;;6.25;100.00;98969.56;5042007;28;20331;-76
2022/02/05 20:34:18;;;;;;;;;;;;;;;6.32;100.00;98987.38;5042766;28;20010;-76
2022/02/05 20:36:43;;;;;;;;;;;;;;;6.59;100.00;98969.06;5057154;28;19943;-75
2022/02/05 20:39:09;;;;;;;;;;;;;;;6.30;100.00;98986.56;5038792;28;19923;-76
2022/02/05 20:41:34;;;;;;;;;;;;;;;6.63;100.00;98970.66;5038481;28;19981;-76
2022/02/05 20:44:00;;;;;;;;;;;;;;;6.30;100.00;98951.59;5038591;28;19973;-76
2022/02/05 20:46:29;;;;;;;;;;;;;;;6.55;100.00;98946.94;5057074;28;19920;-76
2022/02/05 20:48:54;;;;;;;;;;;;;;;6.52;100.00;98946.97;5036043;28;19921;-76
2022/02/05 20:51:19;;;;;;;;;;;;;;;6.38;100.00;98949.75;5037341;28;19940;-76
2022/02/05 20:53:48;;;;;;;;;;;;;;;6.89;100.00;98948.94;5039012;28;19927;-76
2022/02/05 20:56:15;;;;;;;;;;;;;;;6.49;100.00;98949.59;5038192;28;20011;-76